sensor_id;sensor_type;location;lat;lon;timestamp;pressure;altitude;pressure_sealevel;temperature;humidity
25664;BME280;13522;50.018;20.014;2022-10-16T00:00:39;99027.77;;;13.39;100.00
25664;BME280;13522;50.018;20.014;2022-10-16T00:03:54;99028.73;;;13.38;100.00
25664;BME280;13522;50.018;20.014;2022-10-16T00:07:07;99023.41;;;13.38;100.00
25664;BME280;13522;50.018;20.014;2022-10-16T00:10:22;99026.92;;;13.38;100.00
25664;BME280;13522;50.018;20.014;2022-10-16T00:13:35;99023.05;;;13.33;100.00
25664;BME280;13522;50.018;20.014;2022-10-16T00:16:48;99027.69;;;13.31;100.00
25664;BME280;13522;50.018;20.014;2022-10-16T00:20:00;99038.27;;;13.40;100.00
25664;BME280;13522;50.018;20.014;2022-10-16T00:23:11;99040.48;;;13.45;100.00
25664;BME280;13522;50.018;20.014;2022-10-16T00:26:27;99033.17;;;13.47;100.00
25664;BME280;13522;50.018;20.014;2022-10-16T00:29:39;99038.02;;;13.51;100.00
25664;BME280;13522;50.018;20.014;2022-10-16T00:32:51;99038.80;;;13.44;100.00
25664;BME280;13522;50.018;20.014;2022-10-16T00:36:04;99042.23;;;13.36;100.00
25664;BME280;13522;50.018;20.014;2022-10-16T00:39:19;99045.20;;;13.33;100.00
25664;BME280;13522;50.018;20.014;2022-10-16T00:42:30;99053.00;;;13.27;100.00
25664;BME280;13522;50.018;20.014;2022-10-16T00:45:43;99052.39;;;13.33;100.00
25664;BME280;13522;50.018;20.014;2022-10-16T00:48:58;99059.78;;;13.39;100.00
25664;BME280;13522;50.018;20.014;2022-10-16T00:52:12;99060.47;;;13.41;100.00
25664;BME280;13522;50.018;20.014;2022-10-16T00:55:25;99058.94;;;13.38;100.00
25664;BME280;13522;50.018;20.014;2022-10-16T00:58:37;99068.47;;;13.41;100.00
25664;BME280;13522;50.018;20.014;2022-10-16T01:01:51;99063.42;;;13.38;100.00
25664;BME280;13522;50.018;20.014;2022-10-16T01:05:04;99063.95;;;13.41;100.00
25664;BME280;13522;50.018;20.014;2022-10-16T01:08:21;99064.79;;;13.42;100.00
25664;BME280;13522;50.018;20.014;2022-10-16T01:11:39;99057.80;;;13.41;100.00
25664;BME280;13522;50.018;20.014;2022-10-16T01:14:58;99067.09;;;13.37;100.00
25664;BME280;13522;50.018;20.014;2022-10-16T01:18:14;99061.52;;;13.30;100.00
25664;BME280;13522;50.018;20.014;2022-10-16T01:21:31;99065.65;;;13.25;100.00
25664;BME280;13522;50.018;20.014;2022-10-16T01:24:48;99057.41;;;13.18;100.00
25664;BME280;13522;50.018;20.014;2022-10-16T01:28:00;99067.55;;;13.15;100.00
25664;BME280;13522;50.018;20.014;2022-10-16T01:31:17;99063.88;;;13.16;100.00
25664;BME280;13522;50.018;20.014;2022-10-16T01:34:33;99065.86;;;13.14;100.00
25664;BME280;13522;50.018;20.014;2022-10-16T01:37:51;99065.25;;;13.20;100.00
25664;BME280;13522;50.018;20.014;2022-10-16T01:41:06;99077.00;;;13.27;100.00
25664;BME280;13522;50.018;20.014;2022-10-16T01:44:22;99074.78;;;13.22;100.00
25664;BME280;13522;50.018;20.014;2022-10-16T01:47:38;99075.55;;;13.15;100.00
25664;BME280;13522;50.018;20.014;2022-10-16T01:50:56;99076.23;;;13.17;100.00
25664;BME280;13522;50.018;20.014;2022-10-16T01:54:11;99077.91;;;13.18;100.00
25664;BME280;13522;50.018;20.014;2022-10-16T01:57:25;99086.98;;;13.25;100.00
25664;BME280;13522;50.018;20.014;2022-10-16T02:00:41;99081.94;;;13.22;100.00
25664;BME280;13522;50.018;20.014;2022-10-16T02:03:59;99088.97;;;13.23;100.00
25664;BME280;13522;50.018;20.014;2022-10-16T02:07:11;99089.94;;;13.22;100.00
25664;BME280;13522;50.018;20.014;2022-10-16T02:10:24;99083.23;;;13.18;100.00
25664;BME280;13522;50.018;20.014;2022-10-16T02:13:41;99094.91;;;13.17;100.00
25664;BME280;13522;50.018;20.014;2022-10-16T02:16:55;99090.02;;;13.12;100.00
25664;BME280;13522;50.018;20.014;2022-10-16T02:20:08;99092.53;;;13.14;100.00
25664;BME280;13522;50.018;20.014;2022-10-16T02:23:24;99085.81;;;13.10;100.00
25664;BME280;13522;50.018;20.014;2022-10-16T02:26:43;99082.70;;;13.14;100.00
25664;BME280;13522;50.018;20.014;2022-10-16T02:30:01;99084.84;;;13.11;100.00
25664;BME280;13522;50.018;20.014;2022-10-16T02:33:18;99087.19;;;13.14;100.00
25664;BME280;13522;50.018;20.014;2022-10-16T02:36:31;99086.38;;;13.13;100.00
25664;BME280;13522;50.018;20.014;2022-10-16T02:39:43;99093.22;;;13.16;100.00
25664;BME280;13522;50.018;20.014;2022-10-16T02:42:56;99083.55;;;13.15;100.00
25664;BME280;13522;50.018;20.014;2022-10-16T02:46:09;99085.13;;;13.08;100.00
25664;BME280;13522;50.018;20.014;2022-10-16T02:49:21;99087.39;;;13.02;100.00
25664;BME280;13522;50.018;20.014;2022-10-16T02:52:33;99084.89;;;13.01;100.00
25664;BME280;13522;50.018;20.014;2022-10-16T02:55:45;99088.68;;;12.98;100.00
25664;BME280;13522;50.018;20.014;2022-10-16T02:58:56;99085.02;;;12.99;100.00
25664;BME280;13522;50.018;20.014;2022-10-16T03:02:08;99084.04;;;13.00;100.00
25664;BME280;13522;50.018;20.014;2022-10-16T03:05:20;99097.66;;;12.97;100.00
25664;BME280;13522;50.018;20.014;2022-10-16T03:08:32;99094.02;;;12.98;100.00
25664;BME280;13522;50.018;20.014;2022-10-16T03:11:44;99092.32;;;12.97;100.00
25664;BME280;13522;50.018;20.014;2022-10-16T03:14:56;99094.17;;;12.97;100.00
25664;BME280;13522;50.018;20.014;2022-10-16T03:18:08;99093.23;;;12.88;100.00
25664;BME280;13522;50.018;20.014;2022-10-16T03:21:21;99091.48;;;12.79;100.00
25664;BME280;13522;50.018;20.014;2022-10-16T03:24:32;99089.78;;;12.78;100.00
25664;BME280;13522;50.018;20.014;2022-10-16T03:27:44;99091.51;;;12.70;100.00
25664;BME280;13522;50.018;20.014;2022-10-16T03:30:56;99102.33;;;12.68;100.00
25664;BME280;13522;50.018;20.014;2022-10-16T03:34:08;99099.22;;;12.73;100.00
25664;BME280;13522;50.018;20.014;2022-10-16T03:37:21;99103.70;;;12.72;100.00
25664;BME280;13522;50.018;20.014;2022-10-16T03:40:33;99116.06;;;12.73;100.00
25664;BME280;13522;50.018;20.014;2022-10-16T03:43:45;99117.19;;;12.71;100.00
25664;BME280;13522;50.018;20.014;2022-10-16T03:46:57;99122.80;;;12.68;100.00
25664;BME280;13522;50.018;20.014;2022-10-16T03:50:10;99132.64;;;12.67;100.00
25664;BME280;13522;50.018;20.014;2022-10-16T03:53:22;99127.59;;;12.64;100.00
25664;BME280;13522;50.018;20.014;2022-10-16T03:56:33;99133.13;;;12.53;100.00
25664;BME280;13522;50.018;20.014;2022-10-16T03:59:45;99142.23;;;12.51;100.00
25664;BME280;13522;50.018;20.014;2022-10-16T04:02:57;99145.05;;;12.49;100.00
25664;BME280;13522;50.018;20.014;2022-10-16T04:06:09;99142.67;;;12.46;100.00
25664;BME280;13522;50.018;20.014;2022-10-16T04:09:21;99158.11;;;12.43;100.00
25664;BME280;13522;50.018;20.014;2022-10-16T04:12:32;99155.87;;;12.38;100.00
25664;BME280;13522;50.018;20.014;2022-10-16T04:15:46;99145.55;;;12.26;100.00
25664;BME280;13522;50.018;20.014;2022-10-16T04:18:57;99172.03;;;12.27;100.00
25664;BME280;13522;50.018;20.014;2022-10-16T04:22:09;99159.69;;;12.26;100.00
25664;BME280;13522;50.018;20.014;2022-10-16T04:25:21;99158.59;;;12.19;100.00
25664;BME280;13522;50.018;20.014;2022-10-16T04:28:32;99156.78;;;12.19;100.00
25664;BME280;13522;50.018;20.014;2022-10-16T04:31:45;99166.98;;;12.24;100.00
25664;BME280;13522;50.018;20.014;2022-10-16T04:34:56;99160.38;;;12.28;100.00
25664;BME280;13522;50.018;20.014;2022-10-16T04:38:08;99161.08;;;12.30;100.00
25664;BME280;13522;50.018;20.014;2022-10-16T04:41:20;99165.86;;;12.27;100.00
25664;BME280;13522;50.018;20.014;2022-10-16T04:44:32;99161.11;;;12.20;100.00
25664;BME280;13522;50.018;20.014;2022-10-16T04:47:43;99165.77;;;12.09;100.00
25664;BME280;13522;50.018;20.014;2022-10-16T04:50:55;99172.36;;;12.05;100.00
25664;BME280;13522;50.018;20.014;2022-10-16T04:54:08;99168.14;;;12.02;100.00
25664;BME280;13522;50.018;20.014;2022-10-16T04:57:20;99172.77;;;12.00;100.00
25664;BME280;13522;50.018;20.014;2022-10-16T05:00:33;99170.13;;;11.91;100.00
25664;BME280;13522;50.018;20.014;2022-10-16T05:03:45;99173.09;;;11.88;100.00
25664;BME280;13522;50.018;20.014;2022-10-16T05:06:56;99178.81;;;11.93;100.00
25664;BME280;13522;50.018;20.014;2022-10-16T05:10:09;99175.45;;;11.91;100.00
25664;BME280;13522;50.018;20.014;2022-10-16T05:13:21;99174.91;;;11.78;100.00
25664;BME280;13522;50.018;20.014;2022-10-16T05:16:33;99176.32;;;11.72;100.00
25664;BME280;13522;50.018;20.014;2022-10-16T05:19:45;99174.07;;;11.68;100.00
25664;BME280;13522;50.018;20.014;2022-10-16T05:22:57;99171.27;;;11.69;100.00
25664;BME280;13522;50.018;20.014;2022-10-16T05:26:09;99170.15;;;11.72;100.00
25664;BME280;13522;50.018;20.014;2022-10-16T05:29:21;99176.58;;;11.79;100.00
25664;BME280;13522;50.018;20.014;2022-10-16T05:32:33;99191.03;;;11.76;100.00
25664;BME280;13522;50.018;20.014;2022-10-16T05:35:45;99179.53;;;11.76;100.00
25664;BME280;13522;50.018;20.014;2022-10-16T05:38:57;99197.05;;;11.88;100.00
25664;BME280;13522;50.018;20.014;2022-10-16T05:42:09;99207.13;;;11.94;100.00
25664;BME280;13522;50.018;20.014;2022-10-16T05:45:22;99197.31;;;12.04;100.00
25664;BME280;13522;50.018;20.014;2022-10-16T05:48:34;99206.55;;;12.09;100.00
25664;BME280;13522;50.018;20.014;2022-10-16T05:51:46;99202.62;;;12.13;100.00
25664;BME280;13522;50.018;20.014;2022-10-16T05:54:58;99202.77;;;12.12;100.00
25664;BME280;13522;50.018;20.014;2022-10-16T05:58:10;99195.18;;;12.17;100.00
25664;BME280;13522;50.018;20.014;2022-10-16T06:01:22;99192.49;;;12.27;100.00
25664;BME280;13522;50.018;20.014;2022-10-16T06:04:34;99194.43;;;12.34;100.00
25664;BME280;13522;50.018;20.014;2022-10-16T06:07:46;99199.88;;;12.42;100.00
25664;BME280;13522;50.018;20.014;2022-10-16T06:11:05;99201.97;;;12.48;100.00
25664;BME280;13522;50.018;20.014;2022-10-16T06:14:21;99208.41;;;12.55;100.00
25664;BME280;13522;50.018;20.014;2022-10-16T06:17:33;99210.89;;;12.66;100.00
25664;BME280;13522;50.018;20.014;2022-10-16T06:20:45;99217.03;;;12.76;100.00
25664;BME280;13522;50.018;20.014;2022-10-16T06:23:57;99229.50;;;12.85;100.00
25664;BME280;13522;50.018;20.014;2022-10-16T06:27:10;99228.77;;;12.93;100.00
25664;BME280;13522;50.018;20.014;2022-10-16T06:30:22;99231.52;;;13.11;100.00
25664;BME280;13522;50.018;20.014;2022-10-16T06:33:34;99233.98;;;13.49;100.00
25664;BME280;13522;50.018;20.014;2022-10-16T06:36:46;99240.75;;;13.61;100.00
25664;BME280;13522;50.018;20.014;2022-10-16T06:40:01;99196.76;;;13.65;100.00
25664;BME280;13522;50.018;20.014;2022-10-16T06:46:15;99246.41;;;14.11;100.00
25664;BME280;13522;50.018;20.014;2022-10-16T06:49:28;99252.45;;;14.30;100.00
25664;BME280;13522;50.018;20.014;2022-10-16T06:52:40;99253.08;;;14.42;100.00
25664;BME280;13522;50.018;20.014;2022-10-16T06:55:54;99254.63;;;14.52;100.00
25664;BME280;13522;50.018;20.014;2022-10-16T06:59:06;99267.43;;;14.92;100.00
25664;BME280;13522;50.018;20.014;2022-10-16T07:02:18;99258.13;;;15.38;100.00
25664;BME280;13522;50.018;20.014;2022-10-16T07:05:30;99259.20;;;15.53;100.00
25664;BME280;13522;50.018;20.014;2022-10-16T07:19:37;99258.57;;;15.67;100.00
25664;BME280;13522;50.018;20.014;2022-10-16T07:23:56;99272.66;;;15.77;100.00
25664;BME280;13522;50.018;20.014;2022-10-16T07:27:10;99262.63;;;15.79;100.00
25664;BME280;13522;50.018;20.014;2022-10-16T07:31:11;99264.17;;;15.98;100.00
25664;BME280;13522;50.018;20.014;2022-10-16T07:34:39;99269.70;;;16.12;100.00
25664;BME280;13522;50.018;20.014;2022-10-16T07:38:57;99263.69;;;16.26;100.00
25664;BME280;13522;50.018;20.014;2022-10-16T07:42:38;99259.69;;;16.55;100.00
25664;BME280;13522;50.018;20.014;2022-10-16T07:45:50;99272.92;;;16.64;98.55
25664;BME280;13522;50.018;20.014;2022-10-16T07:50:09;99273.25;;;16.85;96.99
25664;BME280;13522;50.018;20.014;2022-10-16T07:53:22;99263.69;;;16.83;92.59
25664;BME280;13522;50.018;20.014;2022-10-16T07:56:44;99265.64;;;17.05;95.28
25664;BME280;13522;50.018;20.014;2022-10-16T07:59:57;99275.03;;;17.09;93.28
25664;BME280;13522;50.018;20.014;2022-10-16T08:04:15;99277.33;;;17.20;95.28
25664;BME280;13522;50.018;20.014;2022-10-16T08:07:55;99283.75;;;17.11;91.97
25664;BME280;13522;50.018;20.014;2022-10-16T08:11:19;99279.30;;;17.34;93.92
25664;BME280;13522;50.018;20.014;2022-10-16T08:15:01;99285.97;;;17.54;93.56
25664;BME280;13522;50.018;20.014;2022-10-16T08:18:26;99287.22;;;17.74;90.11
25664;BME280;13522;50.018;20.014;2022-10-16T08:22:07;99286.19;;;17.75;90.70
25664;BME280;13522;50.018;20.014;2022-10-16T08:25:18;99288.92;;;17.98;89.46
25664;BME280;13522;50.018;20.014;2022-10-16T08:28:59;99286.48;;;18.34;88.39
25664;BME280;13522;50.018;20.014;2022-10-16T08:32:12;99290.47;;;18.46;88.43
25664;BME280;13522;50.018;20.014;2022-10-16T08:35:55;99288.11;;;18.20;86.85
25664;BME280;13522;50.018;20.014;2022-10-16T08:39:22;99295.13;;;18.52;89.04
25664;BME280;13522;50.018;20.014;2022-10-16T08:42:50;99296.25;;;19.09;83.79
25664;BME280;13522;50.018;20.014;2022-10-16T08:50:29;99287.52;;;20.01;78.22
25664;BME280;13522;50.018;20.014;2022-10-16T08:53:44;99296.38;;;20.31;80.29
25664;BME280;13522;50.018;20.014;2022-10-16T08:57:07;99296.60;;;21.33;77.16
25664;BME280;13522;50.018;20.014;2022-10-16T09:00:22;99300.03;;;21.48;76.31
25664;BME280;13522;50.018;20.014;2022-10-16T09:04:12;99292.40;;;21.65;71.23
25664;BME280;13522;50.018;20.014;2022-10-16T09:07:37;99288.50;;;21.74;73.48
25664;BME280;13522;50.018;20.014;2022-10-16T09:11:13;99293.52;;;21.36;70.92
25664;BME280;13522;50.018;20.014;2022-10-16T09:14:52;99302.98;;;21.19;75.37
25664;BME280;13522;50.018;20.014;2022-10-16T09:18:12;99307.12;;;20.94;74.97
25664;BME280;13522;50.018;20.014;2022-10-16T09:21:44;99304.77;;;20.85;79.22
25664;BME280;13522;50.018;20.014;2022-10-16T09:25:01;99305.23;;;20.67;78.01
25664;BME280;13522;50.018;20.014;2022-10-16T09:28:20;99305.76;;;20.35;76.19
25664;BME280;13522;50.018;20.014;2022-10-16T09:31:32;99304.15;;;20.40;77.59
25664;BME280;13522;50.018;20.014;2022-10-16T09:34:49;99314.50;;;20.37;80.10
25664;BME280;13522;50.018;20.014;2022-10-16T09:38:03;99303.75;;;20.86;78.78
25664;BME280;13522;50.018;20.014;2022-10-16T09:41:18;99318.94;;;21.14;75.02
25664;BME280;13522;50.018;20.014;2022-10-16T09:44:33;99310.68;;;21.56;75.33
25664;BME280;13522;50.018;20.014;2022-10-16T09:47:46;99315.77;;;21.79;72.10
25664;BME280;13522;50.018;20.014;2022-10-16T09:51:02;99316.14;;;21.70;66.82
25664;BME280;13522;50.018;20.014;2022-10-16T09:54:19;99314.61;;;21.95;67.01
25664;BME280;13522;50.018;20.014;2022-10-16T09:57:31;99306.07;;;21.91;64.63
25664;BME280;13522;50.018;20.014;2022-10-16T10:00:50;99303.24;;;22.12;66.35
25664;BME280;13522;50.018;20.014;2022-10-16T10:04:04;99308.63;;;22.06;63.22
25664;BME280;13522;50.018;20.014;2022-10-16T10:07:30;99310.25;;;21.94;64.52
25664;BME280;13522;50.018;20.014;2022-10-16T10:10:44;99315.92;;;21.65;63.97
25664;BME280;13522;50.018;20.014;2022-10-16T10:14:08;99324.58;;;21.53;64.66
25664;BME280;13522;50.018;20.014;2022-10-16T10:17:33;99318.69;;;21.37;65.75
25664;BME280;13522;50.018;20.014;2022-10-16T10:20:56;99316.92;;;21.23;65.91
25664;BME280;13522;50.018;20.014;2022-10-16T10:24:13;99324.98;;;21.16;64.42
25664;BME280;13522;50.018;20.014;2022-10-16T10:27:31;99315.67;;;21.25;66.66
25664;BME280;13522;50.018;20.014;2022-10-16T10:30:51;99315.66;;;21.53;64.17
25664;BME280;13522;50.018;20.014;2022-10-16T10:34:11;99307.98;;;21.56;64.42
25664;BME280;13522;50.018;20.014;2022-10-16T10:37:37;99312.50;;;21.84;63.92
25664;BME280;13522;50.018;20.014;2022-10-16T10:41:18;99317.66;;;21.79;63.49
25664;BME280;13522;50.018;20.014;2022-10-16T10:45:08;99302.77;;;21.96;65.18
25664;BME280;13522;50.018;20.014;2022-10-16T10:48:50;99302.80;;;22.09;64.50
25664;BME280;13522;50.018;20.014;2022-10-16T10:52:11;99295.31;;;22.04;63.29
25664;BME280;13522;50.018;20.014;2022-10-16T10:55:31;99292.60;;;22.11;64.21
25664;BME280;13522;50.018;20.014;2022-10-16T10:59:00;99293.67;;;22.23;64.31
25664;BME280;13522;50.018;20.014;2022-10-16T11:02:23;99289.10;;;22.23;64.69
25664;BME280;13522;50.018;20.014;2022-10-16T11:05:43;99295.36;;;22.24;64.93
25664;BME280;13522;50.018;20.014;2022-10-16T11:08:55;99295.80;;;22.34;63.30
25664;BME280;13522;50.018;20.014;2022-10-16T11:12:17;99289.19;;;22.69;61.86
25664;BME280;13522;50.018;20.014;2022-10-16T11:15:32;99283.74;;;23.08;61.41
25664;BME280;13522;50.018;20.014;2022-10-16T11:18:52;99288.71;;;23.38;61.19
25664;BME280;13522;50.018;20.014;2022-10-16T11:22:09;99286.20;;;23.29;61.09
25664;BME280;13522;50.018;20.014;2022-10-16T11:25:29;99282.48;;;23.37;60.83
25664;BME280;13522;50.018;20.014;2022-10-16T11:28:45;99286.20;;;23.29;62.19
25664;BME280;13522;50.018;20.014;2022-10-16T11:32:06;99284.58;;;23.02;59.30
25664;BME280;13522;50.018;20.014;2022-10-16T11:35:39;99295.44;;;22.89;61.97
25664;BME280;13522;50.018;20.014;2022-10-16T11:38:55;99283.56;;;22.71;61.39
25664;BME280;13522;50.018;20.014;2022-10-16T11:42:13;99289.13;;;22.56;62.16
25664;BME280;13522;50.018;20.014;2022-10-16T11:45:34;99286.23;;;22.38;62.11
25664;BME280;13522;50.018;20.014;2022-10-16T11:48:51;99281.20;;;22.35;63.46
25664;BME280;13522;50.018;20.014;2022-10-16T11:52:19;99289.95;;;22.24;63.18
25664;BME280;13522;50.018;20.014;2022-10-16T11:55:36;99283.67;;;22.17;63.83
25664;BME280;13522;50.018;20.014;2022-10-16T11:58:57;99289.45;;;22.01;63.77
25664;BME280;13522;50.018;20.014;2022-10-16T12:02:35;99291.49;;;21.86;64.68
25664;BME280;13522;50.018;20.014;2022-10-16T12:06:00;99288.09;;;21.77;65.38
25664;BME280;13522;50.018;20.014;2022-10-16T12:09:21;99296.36;;;21.63;65.73
25664;BME280;13522;50.018;20.014;2022-10-16T12:12:41;99303.20;;;21.58;66.73
25664;BME280;13522;50.018;20.014;2022-10-16T12:16:03;99310.84;;;21.48;66.90
25664;BME280;13522;50.018;20.014;2022-10-16T12:19:16;99301.67;;;21.43;67.61
25664;BME280;13522;50.018;20.014;2022-10-16T12:22:40;99310.52;;;21.30;67.17
25664;BME280;13522;50.018;20.014;2022-10-16T12:25:58;99309.89;;;21.28;67.96
25664;BME280;13522;50.018;20.014;2022-10-16T12:29:21;99312.37;;;21.23;67.89
25664;BME280;13522;50.018;20.014;2022-10-16T12:32:36;99306.14;;;21.29;67.00
25664;BME280;13522;50.018;20.014;2022-10-16T12:35:51;99300.93;;;21.62;67.58
25664;BME280;13522;50.018;20.014;2022-10-16T12:39:05;99307.72;;;21.86;67.24
25664;BME280;13522;50.018;20.014;2022-10-16T12:42:34;99305.71;;;22.07;65.69
25664;BME280;13522;50.018;20.014;2022-10-16T12:45:46;99300.74;;;22.17;65.60
25664;BME280;13522;50.018;20.014;2022-10-16T12:49:17;99300.35;;;22.20;65.10
25664;BME280;13522;50.018;20.014;2022-10-16T12:52:37;99303.24;;;22.12;64.17
25664;BME280;13522;50.018;20.014;2022-10-16T12:56:03;99306.95;;;21.98;63.58
25664;BME280;13522;50.018;20.014;2022-10-16T12:59:25;99309.58;;;21.85;63.46
25664;BME280;13522;50.018;20.014;2022-10-16T13:06:39;99312.63;;;21.76;64.14
25664;BME280;13522;50.018;20.014;2022-10-16T13:10:17;99312.21;;;21.72;65.09
25664;BME280;13522;50.018;20.014;2022-10-16T13:13:44;99319.27;;;21.67;65.75
25664;BME280;13522;50.018;20.014;2022-10-16T13:17:04;99322.77;;;21.61;65.30
25664;BME280;13522;50.018;20.014;2022-10-16T13:20:23;99327.11;;;21.55;65.49
25664;BME280;13522;50.018;20.014;2022-10-16T13:23:42;99331.67;;;21.54;65.95
25664;BME280;13522;50.018;20.014;2022-10-16T13:27:00;99333.31;;;21.49;66.25
25664;BME280;13522;50.018;20.014;2022-10-16T13:30:17;99332.04;;;21.45;66.79
25664;BME280;13522;50.018;20.014;2022-10-16T13:33:35;99337.83;;;21.42;67.29
25664;BME280;13522;50.018;20.014;2022-10-16T13:36:50;99348.59;;;21.35;67.62
25664;BME280;13522;50.018;20.014;2022-10-16T13:40:17;99348.36;;;21.30;68.42
25664;BME280;13522;50.018;20.014;2022-10-16T13:43:34;99346.88;;;21.28;69.14
25664;BME280;13522;50.018;20.014;2022-10-16T13:46:47;99354.61;;;21.31;69.14
25664;BME280;13522;50.018;20.014;2022-10-16T13:50:13;99348.09;;;21.25;68.57
25664;BME280;13522;50.018;20.014;2022-10-16T13:53:24;99347.64;;;21.15;69.02
25664;BME280;13522;50.018;20.014;2022-10-16T13:56:36;99352.72;;;21.04;70.04
25664;BME280;13522;50.018;20.014;2022-10-16T13:59:49;99359.07;;;20.96;70.85
25664;BME280;13522;50.018;20.014;2022-10-16T14:03:04;99358.19;;;20.89;71.25
25664;BME280;13522;50.018;20.014;2022-10-16T14:06:22;99355.19;;;20.78;72.16
25664;BME280;13522;50.018;20.014;2022-10-16T14:09:34;99367.57;;;20.72;72.79
25664;BME280;13522;50.018;20.014;2022-10-16T14:12:46;99362.30;;;20.64;73.15
25664;BME280;13522;50.018;20.014;2022-10-16T14:16:08;99366.17;;;20.55;73.62
25664;BME280;13522;50.018;20.014;2022-10-16T14:19:51;99373.42;;;20.54;73.90
25664;BME280;13522;50.018;20.014;2022-10-16T14:23:21;99364.88;;;20.51;73.94
25664;BME280;13522;50.018;20.014;2022-10-16T14:26:42;99371.48;;;20.48;74.53
25664;BME280;13522;50.018;20.014;2022-10-16T14:30:09;99365.00;;;20.43;75.08
25664;BME280;13522;50.018;20.014;2022-10-16T14:33:31;99357.67;;;20.37;75.13
25664;BME280;13522;50.018;20.014;2022-10-16T14:36:43;99366.16;;;20.34;74.80
25664;BME280;13522;50.018;20.014;2022-10-16T14:39:56;99371.92;;;20.31;75.11
25664;BME280;13522;50.018;20.014;2022-10-16T14:43:20;99366.64;;;20.23;75.81
25664;BME280;13522;50.018;20.014;2022-10-16T14:46:34;99358.27;;;20.18;75.53
25664;BME280;13522;50.018;20.014;2022-10-16T14:49:49;99360.68;;;20.13;76.12
25664;BME280;13522;50.018;20.014;2022-10-16T14:53:04;99359.78;;;20.06;76.25
25664;BME280;13522;50.018;20.014;2022-10-16T14:56:49;99358.48;;;20.02;77.32
25664;BME280;13522;50.018;20.014;2022-10-16T15:00:02;99356.34;;;19.97;77.54
25664;BME280;13522;50.018;20.014;2022-10-16T15:03:16;99347.55;;;19.88;78.05
25664;BME280;13522;50.018;20.014;2022-10-16T15:06:28;99360.28;;;19.80;79.14
25664;BME280;13522;50.018;20.014;2022-10-16T15:09:40;99367.63;;;19.71;79.53
25664;BME280;13522;50.018;20.014;2022-10-16T15:12:55;99373.30;;;19.62;79.87
25664;BME280;13522;50.018;20.014;2022-10-16T15:16:09;99381.48;;;19.54;80.16
25664;BME280;13522;50.018;20.014;2022-10-16T15:19:23;99381.38;;;19.47;80.51
25664;BME280;13522;50.018;20.014;2022-10-16T15:22:34;99376.72;;;19.41;80.92
25664;BME280;13522;50.018;20.014;2022-10-16T15:25:48;99387.58;;;19.33;81.56
25664;BME280;13522;50.018;20.014;2022-10-16T15:29:17;99398.05;;;19.28;82.01
25664;BME280;13522;50.018;20.014;2022-10-16T15:32:29;99390.05;;;19.20;82.63
25664;BME280;13522;50.018;20.014;2022-10-16T15:35:42;99399.05;;;19.13;82.91
25664;BME280;13522;50.018;20.014;2022-10-16T15:38:56;99400.69;;;18.99;85.28
25664;BME280;13522;50.018;20.014;2022-10-16T15:42:08;99402.31;;;18.85;87.99
25664;BME280;13522;50.018;20.014;2022-10-16T15:45:20;99412.55;;;18.67;89.70
25664;BME280;13522;50.018;20.014;2022-10-16T15:48:33;99413.55;;;18.44;91.04
25664;BME280;13522;50.018;20.014;2022-10-16T15:51:45;99416.11;;;18.29;91.83
25664;BME280;13522;50.018;20.014;2022-10-16T15:54:58;99419.68;;;18.22;92.58
25664;BME280;13522;50.018;20.014;2022-10-16T15:58:10;99417.73;;;18.07;93.04
25664;BME280;13522;50.018;20.014;2022-10-16T16:01:23;99421.66;;;17.89;93.96
25664;BME280;13522;50.018;20.014;2022-10-16T16:04:35;99424.55;;;17.79;93.99
25664;BME280;13522;50.018;20.014;2022-10-16T16:07:50;99429.77;;;17.73;94.77
25664;BME280;13522;50.018;20.014;2022-10-16T16:11:03;99434.35;;;17.64;95.54
25664;BME280;13522;50.018;20.014;2022-10-16T16:14:18;99433.34;;;17.57;96.52
25664;BME280;13522;50.018;20.014;2022-10-16T16:17:33;99427.30;;;17.55;97.43
25664;BME280;13522;50.018;20.014;2022-10-16T16:20:45;99402.31;;;17.39;95.10
25664;BME280;13522;50.018;20.014;2022-10-16T16:23:57;99426.47;;;17.47;94.66
25664;BME280;13522;50.018;20.014;2022-10-16T16:27:11;99438.23;;;17.54;92.97
25664;BME280;13522;50.018;20.014;2022-10-16T16:30:25;99433.34;;;17.57;91.87
25664;BME280;13522;50.018;20.014;2022-10-16T16:33:38;99442.08;;;17.51;92.87
25664;BME280;13522;50.018;20.014;2022-10-16T16:36:50;99454.16;;;17.55;89.82
25664;BME280;13522;50.018;20.014;2022-10-16T16:40:02;99458.37;;;17.58;89.26
25664;BME280;13522;50.018;20.014;2022-10-16T16:43:15;99462.89;;;17.57;88.75
25664;BME280;13522;50.018;20.014;2022-10-16T16:46:27;99464.09;;;17.55;87.81
25664;BME280;13522;50.018;20.014;2022-10-16T16:49:39;99467.95;;;17.52;87.76
25664;BME280;13522;50.018;20.014;2022-10-16T16:52:52;99469.97;;;17.50;87.62
25664;BME280;13522;50.018;20.014;2022-10-16T16:56:06;99476.66;;;17.46;87.03
25664;BME280;13522;50.018;20.014;2022-10-16T16:59:19;99481.67;;;17.41;87.60
25664;BME280;13522;50.018;20.014;2022-10-16T17:02:32;99475.98;;;17.36;87.77
25664;BME280;13522;50.018;20.014;2022-10-16T17:05:56;99486.41;;;17.31;88.90
25664;BME280;13522;50.018;20.014;2022-10-16T17:09:10;99492.77;;;17.30;88.48
25664;BME280;13522;50.018;20.014;2022-10-16T17:12:23;99498.31;;;17.28;87.89
25664;BME280;13522;50.018;20.014;2022-10-16T17:15:35;99495.81;;;17.27;88.05
25664;BME280;13522;50.018;20.014;2022-10-16T17:18:47;99498.14;;;17.22;87.54
25664;BME280;13522;50.018;20.014;2022-10-16T17:21:59;99501.00;;;17.20;86.93
25664;BME280;13522;50.018;20.014;2022-10-16T17:25:11;99509.91;;;17.21;87.06
25664;BME280;13522;50.018;20.014;2022-10-16T17:28:23;99513.92;;;17.17;87.24